Time;durP1;ratioP1;P1;durP2;ratioP2;P2;SDS_P1;SDS_P2;PMS_P1;PMS_P2;Temp;Humidity;BMP_temperature;BMP_pressure;BME280_temperature;BME280_humidity;BME280_pressure;Samples;Min_cycle;Max_cycle;Signal;HPM_P1;HPM_P2
2021/05/22 06:19:18;;;;;;;0.00;0.00;;;;;;;;;;6253346;22;20035;-93
2021/05/22 06:39:17;;;;;;;0.20;0.20;;;;;;;;;;6273065;22;20078;-94
2021/05/22 06:41:46;;;;;;;0.00;0.00;;;;;;;;;;6217764;22;20043;-96
2021/05/22 06:44:19;;;;;;;0.00;0.00;;;;;;;;;;6243781;22;20083;-95
2021/05/22 06:46:48;;;;;;;0.00;0.00;;;;;;;;;;6255688;22;20300;-95
2021/05/22 07:55:10;;;;;;;0.10;0.10;;;;;;;;;;6282592;22;20445;-96
2021/05/22 07:57:36;;;;;;;;;;;;;;;;;;6271827;22;20061;-96
2021/05/22 08:00:06;;;;;;;0.00;0.00;;;;;;;;;;6244938;22;20272;-96
2021/05/22 08:02:32;;;;;;;0.00;0.00;;;;;;;;;;6271477;22;20072;-96
2021/05/22 08:05:17;;;;;;;;;;;;;;;;;;;;;
2021/05/22 08:07:46;;;;;;;0.00;0.00;;;;;;;;;;6248613;22;20305;-96
2021/05/22 08:10:18;;;;;;;0.00;0.00;;;;;;;;;;6271634;22;20012;-96
2021/05/22 08:12:50;;;;;;;0.40;0.32;;;;;;;;;;6271377;22;20008;-96
2021/05/22 08:15:16;;;;;;;0.00;0.00;;;;;;;;;;6271689;22;20135;-96
2021/05/22 08:17:44;;;;;;;0.00;0.00;;;;;;;;;;6273149;22;20012;-96
2021/05/22 08:20:22;;;;;;;0.10;0.10;;;;;;;;;;6273014;22;20008;-96
2021/05/22 08:22:56;;;;;;;0.17;0.17;;;;;;;;;;6246448;22;20035;-96
2021/05/22 08:25:25;;;;;;;0.05;0.00;;;;;;;;;;6272415;22;20059;-96
2021/05/22 08:28:01;;;;;;;0.13;0.13;;;;;;;;;;6244305;22;20007;-96
2021/05/22 08:30:31;;;;;;;0.00;0.00;;;;;;;;;;6220814;22;20015;-96
2021/05/22 08:33:09;;;;;;;0.00;0.00;;;;;;;;;;6246210;22;20015;-96
2021/05/22 08:36:08;;;;;;;0.00;0.00;;;;;;;;;;6266402;22;20023;-96
2021/05/22 08:38:40;;;;;;;0.00;0.00;;;;;;;;;;6247695;22;20012;-96
2021/05/22 08:41:21;;;;;;;0.00;0.00;;;;;;;;;;6216222;23;20661;-96
2021/05/22 08:44:18;;;;;;;0.00;0.00;;;;;;;;;;6214650;23;20008;-96
2021/05/22 08:55:53;;;;;;;0.00;0.00;;;;;;;;;;6122715;23;20126;-96
2021/05/22 08:58:39;;;;;;;0.00;0.00;;;;;;;;;;6158512;23;20015;-96
2021/05/22 09:04:10;;;;;;;0.45;0.25;;;;;;;;;;6200022;23;20008;-96
2021/05/22 09:06:57;;;;;;;3.53;1.27;;;;;;;;;;6186052;23;20087;-96
2021/05/22 09:09:46;;;;;;;0.00;0.00;;;;;;;;;;6184574;23;20004;-96
2021/05/22 09:12:18;;;;;;;0.00;0.00;;;;;;;;;;6186038;23;20043;-96
2021/05/22 09:18:09;;;;;;;0.22;0.22;;;;;;;;;;6089931;23;20528;-96
2021/05/22 09:20:49;;;;;;;0.00;0.00;;;;;;;;;;6177072;23;20094;-96
2021/05/22 09:23:20;;;;;;;0.00;0.00;;;;;;;;;;6185023;23;20008;-96
2021/05/22 09:25:58;;;;;;;0.30;0.13;;;;;;;;;;6211824;23;20012;-96
2021/05/22 09:28:32;;;;;;;0.00;0.00;;;;;;;;;;6160952;23;20017;-96
2021/05/22 09:31:29;;;;;;;0.00;0.00;;;;;;;;;;6182758;23;20020;-95
2021/05/22 09:34:14;;;;;;;0.00;0.00;;;;;;;;;;6182209;23;20012;-96
2021/05/22 09:36:47;;;;;;;0.00;0.00;;;;;;;;;;6184141;23;20020;-96
2021/05/22 09:39:27;;;;;;;0.30;0.30;;;;;;;;;;6183070;23;20009;-96
2021/05/22 09:42:07;;;;;;;0.00;0.00;;;;;;;;;;6182978;23;20016;-95
2021/05/22 09:44:42;;;;;;;0.00;0.00;;;;;;;;;;6184646;23;20083;-96
2021/05/22 09:47:11;;;;;;;0.00;0.00;;;;;;;;;;6207731;23;20013;-96
2021/05/22 09:49:51;;;;;;;0.00;0.00;;;;;;;;;;6180647;23;20019;-95
2021/05/22 09:52:19;;;;;;;0.00;0.00;;;;;;;;;;6162061;23;20012;-94
2021/05/22 09:54:52;;;;;;;0.00;0.00;;;;;;;;;;6200348;23;20023;-94
2021/05/22 09:57:21;;;;;;;0.17;0.03;;;;;;;;;;6214646;23;20513;-94
2021/05/22 10:00:07;;;;;;;0.00;0.00;;;;;;;;;;6212883;23;20507;-94
2021/05/22 10:02:49;;;;;;;0.00;0.00;;;;;;;;;;6212780;23;20008;-93
2021/05/22 10:05:28;;;;;;;0.17;0.10;;;;;;;;;;6214111;23;20376;-96
2021/05/22 10:07:57;;;;;;;0.00;0.00;;;;;;;;;;6215211;23;20016;-96
2021/05/22 10:10:41;;;;;;;0.00;0.00;;;;;;;;;;6217716;23;20023;-96
2021/05/22 10:13:10;;;;;;;0.28;0.28;;;;;;;;;;6194650;23;20012;-94
2021/05/22 10:15:40;;;;;;;0.98;0.77;;;;;;;;;;6217148;23;20533;-96
2021/05/22 10:18:06;;;;;;;0.20;0.20;;;;;;;;;;6218062;23;20437;-96
2021/05/22 10:20:35;;;;;;;0.00;0.00;;;;;;;;;;6218946;23;20066;-96
2021/05/22 10:23:02;;;;;;;0.00;0.00;;;;;;;;;;6216855;23;20453;-96
2021/05/22 10:25:29;;;;;;;0.00;0.00;;;;;;;;;;6221320;23;20004;-96
2021/05/22 10:27:56;;;;;;;0.00;0.00;;;;;;;;;;6215899;23;20019;-93
2021/05/22 10:30:24;;;;;;;0.00;0.00;;;;;;;;;;6216897;23;20430;-93
2021/05/22 10:32:50;;;;;;;0.00;0.00;;;;;;;;;;6216787;23;20019;-95
2021/05/22 10:35:24;;;;;;;0.00;0.00;;;;;;;;;;6216259;23;20095;-94
2021/05/22 10:37:51;;;;;;;18.73;0.30;;;;;;;;;;6214194;23;20013;-96
2021/05/22 10:40:18;;;;;;;;;;;;;;;;;;6215201;23;20012;-95
2021/05/22 10:42:45;;;;;;;1.25;0.10;;;;;;;;;;6213741;23;19907;-94
2021/05/22 10:45:31;;;;;;;1.05;0.08;;;;;;;;;;6216373;23;20008;-95
2021/05/22 10:47:59;;;;;;;0.00;0.00;;;;;;;;;;6214695;23;20437;-95
2021/05/22 10:50:52;;;;;;;0.00;0.00;;;;;;;;;;6215956;23;20135;-96
2021/05/22 10:53:28;;;;;;;0.00;0.00;;;;;;;;;;6209049;23;20016;-96
2021/05/22 10:56:04;;;;;;;0.52;0.52;;;;;;;;;;6215290;23;20020;-95
2021/05/22 10:58:31;;;;;;;0.00;0.00;;;;;;;;;;6218215;23;20091;-96
2021/05/22 11:01:17;;;;;;;0.00;0.00;;;;;;;;;;6193389;23;20008;-96
2021/05/22 11:04:06;;;;;;;0.00;0.00;;;;;;;;;;6216987;23;20452;-96
2021/05/22 11:07:08;;;;;;;0.00;0.00;;;;;;;;;;6212595;23;20011;-96
2021/05/22 11:09:39;;;;;;;0.00;0.00;;;;;;;;;;6094988;23;20013;-96
2021/05/22 11:12:29;;;;;;;0.00;0.00;;;;;;;;;;6200548;23;20018;-96
2021/05/22 11:14:56;;;;;;;0.00;0.00;;;;;;;;;;6216298;23;20012;-96
2021/05/22 11:17:23;;;;;;;0.10;0.10;;;;;;;;;;6215379;23;20012;-96
2021/05/22 11:19:52;;;;;;;;;;;;;;;;;;6218810;23;20016;-96
2021/05/22 11:22:18;;;;;;;0.00;0.00;;;;;;;;;;6216990;23;19912;-96
2021/05/22 11:25:08;;;;;;;0.00;0.00;;;;;;;;;;6225418;23;20000;-96
2021/05/22 11:30:53;;;;;;;0.50;0.50;;;;;;;;;;6251846;23;20012;-96
2021/05/22 11:33:29;;;;;;;0.00;0.00;;;;;;;;;;6194668;23;20019;-96
2021/05/22 11:36:20;;;;;;;1.75;1.10;;;;;;;;;;6222714;23;20004;-96
2021/05/22 11:38:58;;;;;;;;;;;;;;;;;;;;;
2021/05/22 11:41:32;;;;;;;0.00;0.00;;;;;;;;;;6250426;23;20513;-96
2021/05/22 11:44:24;;;;;;;0.00;0.00;;;;;;;;;;6202918;23;20083;-96
2021/05/22 11:47:13;;;;;;;0.57;0.57;;;;;;;;;;6229895;23;20004;-96
2021/05/22 11:52:34;;;;;;;0.00;0.00;;;;;;;;;;6256673;23;19911;-96
2021/05/22 11:55:16;;;;;;;0.00;0.00;;;;;;;;;;6224679;23;20045;-96
2021/05/22 11:58:02;;;;;;;0.20;0.00;;;;;;;;;;6221315;23;20008;-96
2021/05/22 12:00:32;;;;;;;0.00;0.00;;;;;;;;;;6228740;23;20012;-96
2021/05/22 12:03:04;;;;;;;0.00;0.00;;;;;;;;;;6217539;23;20016;-96
2021/05/22 12:05:50;;;;;;;0.20;0.15;;;;;;;;;;6221261;23;20007;-96
2021/05/22 12:08:32;;;;;;;1.08;0.28;;;;;;;;;;6222664;23;20005;-96
2021/05/22 12:11:17;;;;;;;0.00;0.00;;;;;;;;;;6198744;23;20080;-96
2021/05/22 12:13:58;;;;;;;2.30;0.50;;;;;;;;;;6216928;23;20067;-96
2021/05/22 12:16:25;;;;;;;0.00;0.00;;;;;;;;;;6215147;23;20058;-96
2021/05/22 12:18:54;;;;;;;;;;;;;;;;;;6218884;23;20009;-96
2021/05/22 12:21:31;;;;;;;0.10;0.10;;;;;;;;;;6244600;23;20476;-96
2021/05/22 12:24:04;;;;;;;0.00;0.00;;;;;;;;;;6216862;23;20047;-96
2021/05/22 12:26:31;;;;;;;0.00;0.00;;;;;;;;;;6189022;23;20016;-96
2021/05/22 12:29:00;;;;;;;0.00;0.00;;;;;;;;;;6216098;23;20005;-96
2021/05/22 12:31:32;;;;;;;0.00;0.00;;;;;;;;;;6216365;23;20032;-96
2021/05/22 12:34:06;;;;;;;0.00;0.00;;;;;;;;;;6190188;23;20053;-96
2021/05/22 12:36:34;;;;;;;0.40;0.25;;;;;;;;;;6215345;23;20479;-96
2021/05/22 12:39:11;;;;;;;0.08;0.00;;;;;;;;;;6216022;23;20008;-96
2021/05/22 12:41:41;;;;;;;0.00;0.00;;;;;;;;;;6215797;23;20014;-96
2021/05/22 12:44:08;;;;;;;0.55;0.45;;;;;;;;;;6216316;23;20421;-96
2021/05/22 12:46:45;;;;;;;0.00;0.00;;;;;;;;;;6219267;23;20008;-96
2021/05/22 12:49:12;;;;;;;0.00;0.00;;;;;;;;;;6216102;23;20038;-95
2021/05/22 12:51:39;;;;;;;;;;;;;;;;;;6215384;23;20043;-96
2021/05/22 12:54:24;;;;;;;2.05;0.47;;;;;;;;;;6212130;23;19961;-96
2021/05/22 12:57:05;;;;;;;0.00;0.00;;;;;;;;;;6210010;23;20012;-94
2021/05/22 12:59:33;;;;;;;0.00;0.00;;;;;;;;;;6210152;23;20016;-94
2021/05/22 13:02:12;;;;;;;0.10;0.10;;;;;;;;;;6208642;23;20036;-96
2021/05/22 13:04:44;;;;;;;0.00;0.00;;;;;;;;;;6207712;23;20016;-95
2021/05/22 13:07:13;;;;;;;0.00;0.00;;;;;;;;;;6209465;23;20062;-95
2021/05/22 13:09:55;;;;;;;0.00;0.00;;;;;;;;;;6184711;23;20012;-95
2021/05/22 13:12:22;;;;;;;0.00;0.00;;;;;;;;;;6209473;23;20070;-96
2021/05/22 13:14:48;;;;;;;0.13;0.13;;;;;;;;;;6209373;23;20507;-96
2021/05/22 13:17:15;;;;;;;0.00;0.00;;;;;;;;;;6209158;23;20103;-95
2021/05/22 13:19:45;;;;;;;0.25;0.20;;;;;;;;;;6208205;23;20083;-95
2021/05/22 13:22:23;;;;;;;0.00;0.00;;;;;;;;;;6208936;23;20008;-95
2021/05/22 13:25:20;;;;;;;0.00;0.00;;;;;;;;;;6209492;23;20060;-95
2021/05/22 13:28:01;;;;;;;0.00;0.00;;;;;;;;;;6165471;23;20110;-95
2021/05/22 13:30:29;;;;;;;0.00;0.00;;;;;;;;;;6210325;23;20357;-94
2021/05/22 13:32:56;;;;;;;0.43;0.20;;;;;;;;;;6208285;23;20346;-95
2021/05/22 13:35:28;;;;;;;0.08;0.08;;;;;;;;;;6209544;23;20069;-95
2021/05/22 13:37:55;;;;;;;0.00;0.00;;;;;;;;;;6207870;23;20008;-95
2021/05/22 13:40:28;;;;;;;0.00;0.00;;;;;;;;;;6210582;23;20008;-95
2021/05/22 13:42:58;;;;;;;0.22;0.22;;;;;;;;;;6182349;23;20016;-95
2021/05/22 13:45:27;;;;;;;0.00;0.00;;;;;;;;;;6210072;23;20394;-94
2021/05/22 13:47:56;;;;;;;0.10;0.10;;;;;;;;;;6209035;23;19997;-94
2021/05/22 13:50:23;;;;;;;0.30;0.25;;;;;;;;;;6207865;23;20525;-95
2021/05/22 13:52:52;;;;;;;0.05;0.05;;;;;;;;;;6208262;23;20008;-95
2021/05/22 13:55:21;;;;;;;0.00;0.00;;;;;;;;;;6210964;23;20453;-95
2021/05/22 13:57:48;;;;;;;0.00;0.00;;;;;;;;;;6209115;23;20043;-94
2021/05/22 14:00:21;;;;;;;0.00;0.00;;;;;;;;;;6210824;23;20013;-94
2021/05/22 14:02:47;;;;;;;0.00;0.00;;;;;;;;;;6210030;23;20024;-95
2021/05/22 14:05:17;;;;;;;1.67;0.28;;;;;;;;;;6211712;23;20430;-95
2021/05/22 14:07:44;;;;;;;0.00;0.00;;;;;;;;;;6211102;23;20092;-96
2021/05/22 14:10:10;;;;;;;0.00;0.00;;;;;;;;;;6211406;23;20775;-94
2021/05/22 14:12:40;;;;;;;0.22;0.17;;;;;;;;;;6210675;23;20040;-95
2021/05/22 14:15:09;;;;;;;0.00;0.00;;;;;;;;;;6211385;23;20434;-95
2021/05/22 14:17:36;;;;;;;0.00;0.00;;;;;;;;;;6211104;23;20013;-95
2021/05/22 14:20:04;;;;;;;0.00;0.00;;;;;;;;;;6210971;23;20095;-94
2021/05/22 14:22:31;;;;;;;0.00;0.00;;;;;;;;;;6210777;23;20016;-95
2021/05/22 14:24:57;;;;;;;0.00;0.00;;;;;;;;;;6211120;23;20013;-94
2021/05/22 14:27:24;;;;;;;0.00;0.00;;;;;;;;;;6211174;23;20016;-94
2021/05/22 14:29:53;;;;;;;0.00;0.00;;;;;;;;;;6210621;23;20008;-94
2021/05/22 14:32:25;;;;;;;0.00;0.00;;;;;;;;;;6211275;23;20016;-94
2021/05/22 14:34:51;;;;;;;3.20;0.85;;;;;;;;;;6208702;23;20004;-96
2021/05/22 14:37:18;;;;;;;0.00;0.00;;;;;;;;;;6211153;23;20012;-94
2021/05/22 14:39:45;;;;;;;0.03;0.00;;;;;;;;;;6210900;23;20243;-94
2021/05/22 14:42:12;;;;;;;0.00;0.00;;;;;;;;;;6209267;23;20012;-94
2021/05/22 14:44:38;;;;;;;0.00;0.00;;;;;;;;;;6210635;23;20008;-95
2021/05/22 14:47:08;;;;;;;0.00;0.00;;;;;;;;;;6212022;23;20033;-94
2021/05/22 14:49:46;;;;;;;0.05;0.00;;;;;;;;;;6188221;23;20120;-94
2021/05/22 14:52:12;;;;;;;;;;;;;;;;;;6212461;23;20013;-94
2021/05/22 14:54:57;;;;;;;0.00;0.00;;;;;;;;;;6210885;23;19922;-94
2021/05/22 14:57:29;;;;;;;0.00;0.00;;;;;;;;;;6210973;23;20016;-94
2021/05/22 14:59:56;;;;;;;0.00;0.00;;;;;;;;;;6209759;23;20023;-94
2021/05/22 15:02:34;;;;;;;0.00;0.00;;;;;;;;;;6183599;23;20548;-94
2021/05/22 15:05:05;;;;;;;0.00;0.00;;;;;;;;;;6210106;23;20043;-94
2021/05/22 15:07:34;;;;;;;0.00;0.00;;;;;;;;;;6210866;23;20307;-94
2021/05/22 15:10:00;;;;;;;0.00;0.00;;;;;;;;;;6183553;23;20036;-94
2021/05/22 15:12:33;;;;;;;0.00;0.00;;;;;;;;;;6209311;23;20013;-94
2021/05/22 15:15:00;;;;;;;0.00;0.00;;;;;;;;;;6210938;23;20016;-94
2021/05/22 15:17:29;;;;;;;0.05;0.00;;;;;;;;;;6184457;23;20130;-94
2021/05/22 15:20:23;;;;;;;0.00;0.00;;;;;;;;;;6210102;23;20120;-94
2021/05/22 15:22:58;;;;;;;0.00;0.00;;;;;;;;;;6209023;23;20012;-94
2021/05/22 15:25:31;;;;;;;0.00;0.00;;;;;;;;;;6210189;23;20354;-94
2021/05/22 15:28:10;;;;;;;0.00;0.00;;;;;;;;;;6185719;23;20035;-94
2021/05/22 15:30:43;;;;;;;0.00;0.00;;;;;;;;;;6187520;23;20036;-94
2021/05/22 15:33:37;;;;;;;0.00;0.00;;;;;;;;;;6185167;23;20016;-94
2021/05/22 15:36:16;;;;;;;0.00;0.00;;;;;;;;;;6204913;23;20427;-93
2021/05/22 15:38:50;;;;;;;0.00;0.00;;;;;;;;;;6184896;23;20009;-94
2021/05/22 15:41:29;;;;;;;0.00;0.00;;;;;;;;;;6185470;23;20016;-94
2021/05/22 15:44:21;;;;;;;0.10;0.10;;;;;;;;;;6209268;23;20083;-94
2021/05/22 15:46:58;;;;;;;0.00;0.00;;;;;;;;;;6188430;23;20100;-93
2021/05/22 16:00:18;;;;;;;0.00;0.00;;;;;;;;;;6221346;23;20055;-94
2021/05/22 16:05:47;;;;;;;0.00;0.00;;;;;;;;;;6210540;23;20374;-94
2021/05/22 16:08:29;;;;;;;0.00;0.00;;;;;;;;;;6210596;23;20442;-94
2021/05/22 16:10:59;;;;;;;0.00;0.00;;;;;;;;;;6209575;23;20009;-94
2021/05/22 16:16:17;;;;;;;0.10;0.10;;;;;;;;;;6211048;23;20016;-93
2021/05/22 16:21:54;;;;;;;0.00;0.00;;;;;;;;;;6206269;23;20029;-96
2021/05/22 16:24:23;;;;;;;0.00;0.00;;;;;;;;;;6203366;23;20013;-92
2021/05/22 16:26:50;;;;;;;0.00;0.00;;;;;;;;;;6202556;23;20019;-93
2021/05/22 16:29:20;;;;;;;0.00;0.00;;;;;;;;;;6206170;23;20008;-96
2021/05/22 16:31:49;;;;;;;0.00;0.00;;;;;;;;;;6209176;23;20019;-96
2021/05/22 16:34:18;;;;;;;5.15;1.45;;;;;;;;;;6212139;23;20023;-96
2021/05/22 16:36:44;;;;;;;0.00;0.00;;;;;;;;;;6182126;23;20462;-95
2021/05/22 16:39:14;;;;;;;0.00;0.00;;;;;;;;;;6202207;23;20013;-96
2021/05/22 16:42:00;;;;;;;0.00;0.00;;;;;;;;;;6179502;23;20067;-96
2021/05/22 16:44:29;;;;;;;0.00;0.00;;;;;;;;;;6206575;23;20008;-94
2021/05/22 16:46:58;;;;;;;0.00;0.00;;;;;;;;;;6205326;23;20024;-96
2021/05/22 16:49:25;;;;;;;0.00;0.00;;;;;;;;;;6206498;23;20012;-96
2021/05/22 16:51:54;;;;;;;0.00;0.00;;;;;;;;;;6205356;23;20039;-95
2021/05/22 16:54:24;;;;;;;0.00;0.00;;;;;;;;;;6181643;23;20140;-95
2021/05/22 16:56:53;;;;;;;0.10;0.10;;;;;;;;;;6207245;23;20430;-94
2021/05/22 16:59:22;;;;;;;0.00;0.00;;;;;;;;;;6210440;23;20091;-94
2021/05/22 17:01:49;;;;;;;0.00;0.00;;;;;;;;;;6210187;23;20015;-95
2021/05/22 17:04:19;;;;;;;;;;;;;;;;;;6210951;23;20009;-95
2021/05/22 17:06:48;;;;;;;0.00;0.00;;;;;;;;;;6209706;23;19933;-95
2021/05/22 17:09:15;;;;;;;0.00;0.00;;;;;;;;;;6210646;23;20013;-94
2021/05/22 17:11:42;;;;;;;0.00;0.00;;;;;;;;;;6208955;23;20016;-95
2021/05/22 17:14:08;;;;;;;;;;;;;;;;;;6211010;23;20091;-95
2021/05/22 17:16:36;;;;;;;0.00;0.00;;;;;;;;;;6209558;23;19903;-94
2021/05/22 17:19:02;;;;;;;0.00;0.00;;;;;;;;;;6208914;23;20020;-95
2021/05/22 17:21:34;;;;;;;0.00;0.00;;;;;;;;;;6209056;23;20013;-95
2021/05/22 17:24:02;;;;;;;0.00;0.00;;;;;;;;;;6182480;23;20012;-94
2021/05/22 17:26:39;;;;;;;0.00;0.00;;;;;;;;;;6184846;23;20017;-94
2021/05/22 17:29:11;;;;;;;0.10;0.08;;;;;;;;;;6209896;23;20009;-94
2021/05/22 17:31:47;;;;;;;0.57;0.57;;;;;;;;;;6184039;23;20032;-94
2021/05/22 17:34:28;;;;;;;0.10;0.10;;;;;;;;;;6207697;23;20013;-94
2021/05/22 17:37:10;;;;;;;0.00;0.00;;;;;;;;;;6208186;23;20012;-95
2021/05/22 17:39:51;;;;;;;0.00;0.00;;;;;;;;;;6186022;23;20013;-96
2021/05/22 17:42:30;;;;;;;0.00;0.00;;;;;;;;;;6210114;23;20029;-95
2021/05/22 17:45:20;;;;;;;0.00;0.00;;;;;;;;;;6185734;23;20735;-96
2021/05/22 17:48:18;;;;;;;0.00;0.00;;;;;;;;;;6209622;23;20008;-94
2021/05/22 17:51:21;;;;;;;0.00;0.00;;;;;;;;;;6202996;23;20004;-95
2021/05/22 17:54:08;;;;;;;0.00;0.00;;;;;;;;;;6220945;23;20331;-96
2021/05/22 17:57:08;;;;;;;0.00;0.00;;;;;;;;;;6213330;23;20016;-95
2021/05/22 17:59:51;;;;;;;0.63;0.63;;;;;;;;;;6211077;23;20008;-96
2021/05/22 18:02:34;;;;;;;0.00;0.00;;;;;;;;;;6186541;23;20023;-96
2021/05/22 18:05:12;;;;;;;0.00;0.00;;;;;;;;;;6207805;23;20009;-96
2021/05/22 18:07:45;;;;;;;0.00;0.00;;;;;;;;;;6209312;23;20012;-96
2021/05/22 18:10:25;;;;;;;0.00;0.00;;;;;;;;;;6209587;23;20456;-96
2021/05/22 18:12:53;;;;;;;0.10;0.05;;;;;;;;;;6209280;23;20433;-96
2021/05/22 18:15:20;;;;;;;0.00;0.00;;;;;;;;;;6211640;23;20012;-95
2021/05/22 18:18:08;;;;;;;0.28;0.20;;;;;;;;;;6211276;23;20013;-95
2021/05/22 18:20:37;;;;;;;0.98;0.35;;;;;;;;;;6213724;23;20048;-96
2021/05/22 18:26:31;;;;;;;0.00;0.00;;;;;;;;;;6238110;23;20015;-96
2021/05/22 18:29:00;;;;;;;0.00;0.00;;;;;;;;;;6236519;23;20004;-96
2021/05/22 18:31:47;;;;;;;0.33;0.33;;;;;;;;;;6211540;23;20032;-96
2021/05/22 18:34:24;;;;;;;1.08;0.20;;;;;;;;;;6187670;23;20016;-96
2021/05/22 18:36:52;;;;;;;0.00;0.00;;;;;;;;;;6187365;22;20039;-96
2021/05/22 18:39:19;;;;;;;0.32;0.32;;;;;;;;;;6211728;23;20050;-96
2021/05/22 18:41:54;;;;;;;0.00;0.00;;;;;;;;;;6205514;23;20016;-96
2021/05/22 18:44:29;;;;;;;0.05;0.03;;;;;;;;;;6210818;23;20004;-96
2021/05/22 18:46:58;;;;;;;0.00;0.00;;;;;;;;;;6212311;23;20437;-96
2021/05/22 18:49:27;;;;;;;0.00;0.00;;;;;;;;;;6214373;23;20008;-96
2021/05/22 18:51:57;;;;;;;0.73;0.47;;;;;;;;;;6213677;23;20004;-95
2021/05/22 18:54:33;;;;;;;0.00;0.00;;;;;;;;;;6189061;23;20016;-96
2021/05/22 18:57:09;;;;;;;0.75;0.75;;;;;;;;;;6213099;23;20016;-96
2021/05/22 18:59:42;;;;;;;0.20;0.20;;;;;;;;;;6213501;23;20032;-95
2021/05/22 19:02:28;;;;;;;0.00;0.00;;;;;;;;;;6211690;23;20012;-95
2021/05/22 19:04:58;;;;;;;0.25;0.22;;;;;;;;;;6210973;23;20012;-96
2021/05/22 19:07:26;;;;;;;0.08;0.08;;;;;;;;;;6211944;23;20008;-96
2021/05/22 19:12:49;;;;;;;0.10;0.10;;;;;;;;;;6243732;23;20016;-96
2021/05/22 19:18:23;;;;;;;0.00;0.00;;;;;;;;;;6226011;23;20423;-94
2021/05/22 19:20:54;;;;;;;;;;;;;;;;;;6229849;23;20442;-94
2021/05/22 19:26:38;;;;;;;0.00;0.00;;;;;;;;;;6301647;22;20054;-92
2021/05/22 20:49:43;;;;;;;0.22;0.22;;;;;;;;;;6302132;22;20038;-92
2021/05/22 20:52:10;;;;;;;2.63;1.10;;;;;;;;;;6277502;22;20003;-94
2021/05/22 20:57:50;;;;;;;0.00;0.00;;;;;;;;;;6299182;22;20037;-91
2021/05/22 21:52:19;;;;;;;0.00;0.00;;;;;;;;;;6289072;22;20018;-93
